sensor_id;sensor_type;location;lat;lon;timestamp;P1;durP1;ratioP1;P2;durP2;ratioP2
23614;SDS011;11985;49.404;7.734;2023-09-07T00:00:48;10.25;;;4.60;;
23614;SDS011;11985;49.404;7.734;2023-09-07T00:05:50;6.38;;;4.38;;
23614;SDS011;11985;49.404;7.734;2023-09-07T00:10:53;9.18;;;4.75;;
23614;SDS011;11985;49.404;7.734;2023-09-07T00:15:57;9.07;;;5.10;;
23614;SDS011;11985;49.404;7.734;2023-09-07T00:26:03;12.85;;;5.00;;
23614;SDS011;11985;49.404;7.734;2023-09-07T00:31:04;6.18;;;4.32;;
23614;SDS011;11985;49.404;7.734;2023-09-07T00:36:06;8.10;;;3.95;;
23614;SDS011;11985;49.404;7.734;2023-09-07T00:41:09;5.45;;;4.20;;
23614;SDS011;11985;49.404;7.734;2023-09-07T00:46:11;6.20;;;4.30;;
23614;SDS011;11985;49.404;7.734;2023-09-07T00:51:13;8.25;;;4.43;;
23614;SDS011;11985;49.404;7.734;2023-09-07T00:56:16;6.07;;;4.13;;
23614;SDS011;11985;49.404;7.734;2023-09-07T01:01:17;5.05;;;4.32;;
23614;SDS011;11985;49.404;7.734;2023-09-07T01:06:20;8.13;;;4.47;;
23614;SDS011;11985;49.404;7.734;2023-09-07T01:11:26;7.78;;;4.50;;
23614;SDS011;11985;49.404;7.734;2023-09-07T01:16:36;5.40;;;4.20;;
23614;SDS011;11985;49.404;7.734;2023-09-07T01:21:41;5.65;;;4.55;;
23614;SDS011;11985;49.404;7.734;2023-09-07T01:26:42;7.22;;;4.25;;
23614;SDS011;11985;49.404;7.734;2023-09-07T01:31:49;5.05;;;4.07;;
23614;SDS011;11985;49.404;7.734;2023-09-07T01:36:52;6.97;;;4.78;;
23614;SDS011;11985;49.404;7.734;2023-09-07T01:41:53;6.65;;;4.10;;
23614;SDS011;11985;49.404;7.734;2023-09-07T01:46:55;10.88;;;4.35;;
23614;SDS011;11985;49.404;7.734;2023-09-07T01:51:58;6.43;;;4.38;;
23614;SDS011;11985;49.404;7.734;2023-09-07T01:57:00;8.30;;;4.47;;
23614;SDS011;11985;49.404;7.734;2023-09-07T02:02:02;9.02;;;4.20;;
23614;SDS011;11985;49.404;7.734;2023-09-07T02:07:05;5.68;;;3.85;;
23614;SDS011;11985;49.404;7.734;2023-09-07T02:12:07;5.30;;;3.90;;
23614;SDS011;11985;49.404;7.734;2023-09-07T02:17:10;8.02;;;4.40;;
23614;SDS011;11985;49.404;7.734;2023-09-07T02:22:19;6.78;;;4.43;;
23614;SDS011;11985;49.404;7.734;2023-09-07T02:27:20;5.90;;;4.32;;
23614;SDS011;11985;49.404;7.734;2023-09-07T02:32:22;6.25;;;4.65;;
23614;SDS011;11985;49.404;7.734;2023-09-07T02:37:25;7.75;;;4.28;;
23614;SDS011;11985;49.404;7.734;2023-09-07T02:42:26;8.65;;;4.25;;
23614;SDS011;11985;49.404;7.734;2023-09-07T02:47:28;4.32;;;3.90;;
23614;SDS011;11985;49.404;7.734;2023-09-07T02:52:31;5.40;;;3.50;;
23614;SDS011;11985;49.404;7.734;2023-09-07T02:57:34;5.45;;;3.55;;
23614;SDS011;11985;49.404;7.734;2023-09-07T03:02:36;5.18;;;3.83;;
23614;SDS011;11985;49.404;7.734;2023-09-07T03:07:39;4.22;;;3.42;;
23614;SDS011;11985;49.404;7.734;2023-09-07T03:12:41;4.80;;;3.40;;
23614;SDS011;11985;49.404;7.734;2023-09-07T03:17:42;5.50;;;3.42;;
23614;SDS011;11985;49.404;7.734;2023-09-07T03:22:46;7.53;;;3.72;;
23614;SDS011;11985;49.404;7.734;2023-09-07T03:27:48;11.50;;;3.65;;
23614;SDS011;11985;49.404;7.734;2023-09-07T03:32:50;5.85;;;3.20;;
23614;SDS011;11985;49.404;7.734;2023-09-07T03:37:53;4.90;;;3.58;;
23614;SDS011;11985;49.404;7.734;2023-09-07T03:42:54;5.57;;;3.63;;
23614;SDS011;11985;49.404;7.734;2023-09-07T03:47:56;7.30;;;4.13;;
23614;SDS011;11985;49.404;7.734;2023-09-07T03:52:59;8.15;;;3.80;;
23614;SDS011;11985;49.404;7.734;2023-09-07T03:58:00;5.32;;;3.95;;
23614;SDS011;11985;49.404;7.734;2023-09-07T04:03:03;7.20;;;3.75;;
23614;SDS011;11985;49.404;7.734;2023-09-07T04:08:07;7.15;;;3.83;;
23614;SDS011;11985;49.404;7.734;2023-09-07T04:13:08;7.30;;;3.90;;
23614;SDS011;11985;49.404;7.734;2023-09-07T04:18:10;6.20;;;3.40;;
23614;SDS011;11985;49.404;7.734;2023-09-07T04:23:14;5.30;;;3.67;;
23614;SDS011;11985;49.404;7.734;2023-09-07T04:28:16;5.97;;;3.83;;
23614;SDS011;11985;49.404;7.734;2023-09-07T04:33:18;9.80;;;6.50;;
23614;SDS011;11985;49.404;7.734;2023-09-07T04:38:21;7.00;;;4.13;;
23614;SDS011;11985;49.404;7.734;2023-09-07T04:43:23;6.28;;;3.85;;
23614;SDS011;11985;49.404;7.734;2023-09-07T04:48:24;7.95;;;3.75;;
23614;SDS011;11985;49.404;7.734;2023-09-07T04:53:29;6.65;;;3.92;;
23614;SDS011;11985;49.404;7.734;2023-09-07T04:58:31;5.90;;;3.58;;
23614;SDS011;11985;49.404;7.734;2023-09-07T05:03:33;7.30;;;4.20;;
23614;SDS011;11985;49.404;7.734;2023-09-07T05:08:37;6.18;;;4.43;;
23614;SDS011;11985;49.404;7.734;2023-09-07T05:13:38;8.90;;;4.75;;
23614;SDS011;11985;49.404;7.734;2023-09-07T05:18:40;5.93;;;4.28;;
23614;SDS011;11985;49.404;7.734;2023-09-07T05:23:44;7.43;;;3.70;;
23614;SDS011;11985;49.404;7.734;2023-09-07T05:28:45;5.65;;;4.30;;
23614;SDS011;11985;49.404;7.734;2023-09-07T05:33:47;7.95;;;3.70;;
23614;SDS011;11985;49.404;7.734;2023-09-07T05:38:50;6.47;;;4.63;;
23614;SDS011;11985;49.404;7.734;2023-09-07T05:43:52;5.47;;;3.95;;
23614;SDS011;11985;49.404;7.734;2023-09-07T05:48:54;8.45;;;3.85;;
23614;SDS011;11985;49.404;7.734;2023-09-07T05:53:57;5.60;;;3.97;;
23614;SDS011;11985;49.404;7.734;2023-09-07T05:58:59;9.90;;;4.80;;
23614;SDS011;11985;49.404;7.734;2023-09-07T06:04:01;8.60;;;4.35;;
23614;SDS011;11985;49.404;7.734;2023-09-07T06:09:04;10.40;;;4.63;;
23614;SDS011;11985;49.404;7.734;2023-09-07T06:14:06;4.85;;;3.85;;
23614;SDS011;11985;49.404;7.734;2023-09-07T06:19:07;5.45;;;4.32;;
23614;SDS011;11985;49.404;7.734;2023-09-07T06:24:10;5.97;;;4.15;;
23614;SDS011;11985;49.404;7.734;2023-09-07T06:29:12;5.93;;;4.18;;
23614;SDS011;11985;49.404;7.734;2023-09-07T06:34:14;7.38;;;4.22;;
23614;SDS011;11985;49.404;7.734;2023-09-07T06:39:17;5.25;;;4.03;;
23614;SDS011;11985;49.404;7.734;2023-09-07T06:44:18;6.20;;;4.60;;
23614;SDS011;11985;49.404;7.734;2023-09-07T06:49:20;6.97;;;4.32;;
23614;SDS011;11985;49.404;7.734;2023-09-07T06:54:23;8.20;;;3.92;;
23614;SDS011;11985;49.404;7.734;2023-09-07T06:59:25;6.40;;;4.45;;
23614;SDS011;11985;49.404;7.734;2023-09-07T07:04:27;6.43;;;3.90;;
23614;SDS011;11985;49.404;7.734;2023-09-07T07:09:30;6.22;;;4.13;;
23614;SDS011;11985;49.404;7.734;2023-09-07T07:14:31;6.70;;;4.10;;
23614;SDS011;11985;49.404;7.734;2023-09-07T07:19:33;6.55;;;3.92;;
23614;SDS011;11985;49.404;7.734;2023-09-07T07:24:36;5.32;;;3.40;;
23614;SDS011;11985;49.404;7.734;2023-09-07T07:29:38;8.73;;;3.50;;
23614;SDS011;11985;49.404;7.734;2023-09-07T07:34:40;9.93;;;4.03;;
23614;SDS011;11985;49.404;7.734;2023-09-07T07:39:43;8.13;;;4.30;;
23614;SDS011;11985;49.404;7.734;2023-09-07T07:44:44;5.88;;;4.15;;
23614;SDS011;11985;49.404;7.734;2023-09-07T07:49:46;10.60;;;4.22;;
23614;SDS011;11985;49.404;7.734;2023-09-07T07:54:49;7.65;;;4.10;;
23614;SDS011;11985;49.404;7.734;2023-09-07T07:59:50;5.85;;;3.97;;
23614;SDS011;11985;49.404;7.734;2023-09-07T08:04:52;5.82;;;4.00;;
23614;SDS011;11985;49.404;7.734;2023-09-07T08:09:55;8.05;;;4.18;;
23614;SDS011;11985;49.404;7.734;2023-09-07T08:14:56;9.18;;;4.22;;
23614;SDS011;11985;49.404;7.734;2023-09-07T08:19:58;5.03;;;3.75;;
23614;SDS011;11985;49.404;7.734;2023-09-07T08:25:01;5.43;;;4.22;;
23614;SDS011;11985;49.404;7.734;2023-09-07T08:30:03;5.55;;;3.95;;
23614;SDS011;11985;49.404;7.734;2023-09-07T08:35:07;9.73;;;4.10;;
23614;SDS011;11985;49.404;7.734;2023-09-07T08:40:14;6.57;;;3.70;;
23614;SDS011;11985;49.404;7.734;2023-09-07T08:50:21;6.15;;;4.30;;
23614;SDS011;11985;49.404;7.734;2023-09-07T08:55:25;6.95;;;3.67;;
23614;SDS011;11985;49.404;7.734;2023-09-07T09:00:27;5.80;;;3.60;;
23614;SDS011;11985;49.404;7.734;2023-09-07T09:05:30;7.78;;;3.88;;
23614;SDS011;11985;49.404;7.734;2023-09-07T09:10:34;8.43;;;3.72;;
23614;SDS011;11985;49.404;7.734;2023-09-07T09:15:38;4.95;;;3.45;;
23614;SDS011;11985;49.404;7.734;2023-09-07T09:20:40;4.00;;;3.42;;
23614;SDS011;11985;49.404;7.734;2023-09-07T09:25:43;6.85;;;3.63;;
23614;SDS011;11985;49.404;7.734;2023-09-07T09:30:45;5.78;;;3.55;;
23614;SDS011;11985;49.404;7.734;2023-09-07T09:35:47;8.13;;;3.42;;
23614;SDS011;11985;49.404;7.734;2023-09-07T09:40:50;4.22;;;3.28;;
23614;SDS011;11985;49.404;7.734;2023-09-07T09:45:52;5.90;;;4.00;;
23614;SDS011;11985;49.404;7.734;2023-09-07T09:50:54;6.18;;;3.13;;
23614;SDS011;11985;49.404;7.734;2023-09-07T09:55:58;6.53;;;3.40;;
23614;SDS011;11985;49.404;7.734;2023-09-07T10:01:00;4.10;;;3.50;;
23614;SDS011;11985;49.404;7.734;2023-09-07T10:06:08;3.45;;;3.15;;
23614;SDS011;11985;49.404;7.734;2023-09-07T10:11:12;3.58;;;3.05;;
23614;SDS011;11985;49.404;7.734;2023-09-07T10:16:13;4.95;;;2.78;;
23614;SDS011;11985;49.404;7.734;2023-09-07T10:21:15;4.38;;;3.22;;
23614;SDS011;11985;49.404;7.734;2023-09-07T10:26:18;3.45;;;2.92;;
23614;SDS011;11985;49.404;7.734;2023-09-07T10:31:24;4.10;;;2.90;;
23614;SDS011;11985;49.404;7.734;2023-09-07T10:36:27;3.75;;;2.97;;
23614;SDS011;11985;49.404;7.734;2023-09-07T10:41:32;5.70;;;3.40;;
23614;SDS011;11985;49.404;7.734;2023-09-07T10:46:41;4.03;;;2.95;;
23614;SDS011;11985;49.404;7.734;2023-09-07T10:51:43;11.30;;;3.05;;
23614;SDS011;11985;49.404;7.734;2023-09-07T10:56:48;7.63;;;3.07;;
23614;SDS011;11985;49.404;7.734;2023-09-07T11:01:50;4.00;;;2.90;;
23614;SDS011;11985;49.404;7.734;2023-09-07T11:06:52;4.15;;;2.97;;
23614;SDS011;11985;49.404;7.734;2023-09-07T11:11:56;4.88;;;3.05;;
23614;SDS011;11985;49.404;7.734;2023-09-07T11:16:57;7.53;;;2.90;;
23614;SDS011;11985;49.404;7.734;2023-09-07T11:21:59;6.28;;;2.92;;
23614;SDS011;11985;49.404;7.734;2023-09-07T11:27:05;3.88;;;2.80;;
23614;SDS011;11985;49.404;7.734;2023-09-07T11:32:10;4.63;;;2.92;;
23614;SDS011;11985;49.404;7.734;2023-09-07T11:37:13;4.00;;;2.97;;
23614;SDS011;11985;49.404;7.734;2023-09-07T11:42:16;3.35;;;2.90;;
23614;SDS011;11985;49.404;7.734;2023-09-07T11:47:17;6.47;;;2.92;;
23614;SDS011;11985;49.404;7.734;2023-09-07T11:52:19;5.93;;;3.10;;
23614;SDS011;11985;49.404;7.734;2023-09-07T11:57:22;4.18;;;3.28;;
23614;SDS011;11985;49.404;7.734;2023-09-07T12:02:24;6.07;;;2.65;;
23614;SDS011;11985;49.404;7.734;2023-09-07T12:07:26;3.33;;;2.88;;
23614;SDS011;11985;49.404;7.734;2023-09-07T12:12:29;5.70;;;2.92;;
23614;SDS011;11985;49.404;7.734;2023-09-07T12:17:31;3.97;;;3.42;;
23614;SDS011;11985;49.404;7.734;2023-09-07T12:22:33;3.20;;;2.45;;
23614;SDS011;11985;49.404;7.734;2023-09-07T12:27:37;4.30;;;2.97;;
23614;SDS011;11985;49.404;7.734;2023-09-07T12:32:39;4.27;;;3.00;;
23614;SDS011;11985;49.404;7.734;2023-09-07T12:37:41;3.53;;;3.20;;
23614;SDS011;11985;49.404;7.734;2023-09-07T12:42:44;4.82;;;3.38;;
23614;SDS011;11985;49.404;7.734;2023-09-07T12:47:47;4.90;;;2.92;;
23614;SDS011;11985;49.404;7.734;2023-09-07T12:52:48;6.55;;;3.60;;
23614;SDS011;11985;49.404;7.734;2023-09-07T12:57:51;4.65;;;3.40;;
23614;SDS011;11985;49.404;7.734;2023-09-07T13:02:53;5.83;;;3.63;;
23614;SDS011;11985;49.404;7.734;2023-09-07T13:07:54;4.63;;;3.13;;
23614;SDS011;11985;49.404;7.734;2023-09-07T13:12:59;4.75;;;3.30;;
23614;SDS011;11985;49.404;7.734;2023-09-07T13:18:00;7.93;;;3.50;;
23614;SDS011;11985;49.404;7.734;2023-09-07T13:23:02;8.50;;;3.47;;
23614;SDS011;11985;49.404;7.734;2023-09-07T13:28:06;7.75;;;3.65;;
23614;SDS011;11985;49.404;7.734;2023-09-07T13:33:07;4.60;;;3.38;;
23614;SDS011;11985;49.404;7.734;2023-09-07T13:38:09;6.13;;;3.42;;
23614;SDS011;11985;49.404;7.734;2023-09-07T13:43:12;5.85;;;3.70;;
23614;SDS011;11985;49.404;7.734;2023-09-07T13:48:14;5.63;;;2.87;;
23614;SDS011;11985;49.404;7.734;2023-09-07T13:53:15;6.22;;;3.67;;
23614;SDS011;11985;49.404;7.734;2023-09-07T13:58:18;5.10;;;3.75;;
23614;SDS011;11985;49.404;7.734;2023-09-07T14:03:20;5.30;;;3.97;;
23614;SDS011;11985;49.404;7.734;2023-09-07T14:08:22;4.10;;;3.10;;
23614;SDS011;11985;49.404;7.734;2023-09-07T14:13:25;7.35;;;3.28;;
23614;SDS011;11985;49.404;7.734;2023-09-07T14:18:27;5.40;;;3.23;;
23614;SDS011;11985;49.404;7.734;2023-09-07T14:23:29;3.60;;;2.63;;
23614;SDS011;11985;49.404;7.734;2023-09-07T14:28:32;10.57;;;2.90;;
23614;SDS011;11985;49.404;7.734;2023-09-07T14:33:34;8.75;;;2.88;;
23614;SDS011;11985;49.404;7.734;2023-09-07T14:38:38;3.42;;;2.25;;
23614;SDS011;11985;49.404;7.734;2023-09-07T14:43:44;4.80;;;2.90;;
23614;SDS011;11985;49.404;7.734;2023-09-07T14:48:46;4.57;;;3.08;;
23614;SDS011;11985;49.404;7.734;2023-09-07T14:53:49;5.15;;;2.92;;
23614;SDS011;11985;49.404;7.734;2023-09-07T14:58:52;6.28;;;2.70;;
23614;SDS011;11985;49.404;7.734;2023-09-07T15:03:54;3.50;;;3.00;;
23614;SDS011;11985;49.404;7.734;2023-09-07T15:08:56;3.13;;;2.80;;
23614;SDS011;11985;49.404;7.734;2023-09-07T15:13:59;4.90;;;2.47;;
23614;SDS011;11985;49.404;7.734;2023-09-07T15:19:02;5.03;;;2.85;;
23614;SDS011;11985;49.404;7.734;2023-09-07T15:24:05;3.65;;;2.65;;
23614;SDS011;11985;49.404;7.734;2023-09-07T15:29:08;5.20;;;2.60;;
23614;SDS011;11985;49.404;7.734;2023-09-07T15:39:11;4.68;;;2.63;;
23614;SDS011;11985;49.404;7.734;2023-09-07T15:44:14;5.43;;;2.55;;
23614;SDS011;11985;49.404;7.734;2023-09-07T15:49:16;6.65;;;3.10;;
23614;SDS011;11985;49.404;7.734;2023-09-07T15:54:18;4.68;;;2.88;;
23614;SDS011;11985;49.404;7.734;2023-09-07T15:59:21;4.82;;;3.30;;
23614;SDS011;11985;49.404;7.734;2023-09-07T16:04:23;3.67;;;2.85;;
23614;SDS011;11985;49.404;7.734;2023-09-07T16:09:24;3.75;;;2.83;;
23614;SDS011;11985;49.404;7.734;2023-09-07T16:14:29;6.78;;;2.72;;
23614;SDS011;11985;49.404;7.734;2023-09-07T16:19:30;4.20;;;2.80;;
23614;SDS011;11985;49.404;7.734;2023-09-07T16:24:32;3.90;;;2.50;;
23614;SDS011;11985;49.404;7.734;2023-09-07T16:29:35;3.28;;;2.60;;
23614;SDS011;11985;49.404;7.734;2023-09-07T16:34:37;4.53;;;2.70;;
23614;SDS011;11985;49.404;7.734;2023-09-07T16:39:39;4.10;;;2.72;;
23614;SDS011;11985;49.404;7.734;2023-09-07T16:44:42;4.90;;;2.55;;
23614;SDS011;11985;49.404;7.734;2023-09-07T16:49:44;5.75;;;2.42;;
23614;SDS011;11985;49.404;7.734;2023-09-07T16:59:51;4.25;;;2.25;;
23614;SDS011;11985;49.404;7.734;2023-09-07T17:04:52;6.38;;;2.78;;
23614;SDS011;11985;49.404;7.734;2023-09-07T17:09:54;3.47;;;2.60;;
23614;SDS011;11985;49.404;7.734;2023-09-07T17:14:57;4.20;;;2.67;;
23614;SDS011;11985;49.404;7.734;2023-09-07T17:19:59;3.00;;;2.53;;
23614;SDS011;11985;49.404;7.734;2023-09-07T17:25:02;7.90;;;3.03;;
23614;SDS011;11985;49.404;7.734;2023-09-07T17:30:07;5.03;;;3.50;;
23614;SDS011;11985;49.404;7.734;2023-09-07T17:35:09;7.32;;;3.40;;
23614;SDS011;11985;49.404;7.734;2023-09-07T17:40:11;5.85;;;3.55;;
23614;SDS011;11985;49.404;7.734;2023-09-07T17:45:15;4.38;;;3.38;;
23614;SDS011;11985;49.404;7.734;2023-09-07T17:50:18;5.93;;;3.70;;
23614;SDS011;11985;49.404;7.734;2023-09-07T17:55:19;5.70;;;3.42;;
23614;SDS011;11985;49.404;7.734;2023-09-07T18:00:22;5.22;;;3.53;;
23614;SDS011;11985;49.404;7.734;2023-09-07T18:05:24;6.18;;;3.85;;
23614;SDS011;11985;49.404;7.734;2023-09-07T18:10:26;8.98;;;3.78;;
23614;SDS011;11985;49.404;7.734;2023-09-07T18:15:30;7.28;;;3.30;;
23614;SDS011;11985;49.404;7.734;2023-09-07T18:20:32;7.22;;;3.78;;
23614;SDS011;11985;49.404;7.734;2023-09-07T18:25:34;8.23;;;3.83;;
23614;SDS011;11985;49.404;7.734;2023-09-07T18:30:39;7.32;;;3.67;;
23614;SDS011;11985;49.404;7.734;2023-09-07T18:35:41;6.97;;;4.00;;
23614;SDS011;11985;49.404;7.734;2023-09-07T18:40:43;10.80;;;4.15;;
23614;SDS011;11985;49.404;7.734;2023-09-07T18:45:48;9.80;;;4.07;;
23614;SDS011;11985;49.404;7.734;2023-09-07T18:50:49;5.93;;;3.78;;
23614;SDS011;11985;49.404;7.734;2023-09-07T18:55:51;6.15;;;4.43;;
23614;SDS011;11985;49.404;7.734;2023-09-07T19:00:54;5.55;;;4.05;;
23614;SDS011;11985;49.404;7.734;2023-09-07T19:05:56;7.70;;;4.40;;
23614;SDS011;11985;49.404;7.734;2023-09-07T19:10:58;5.95;;;4.65;;
23614;SDS011;11985;49.404;7.734;2023-09-07T19:16:01;7.10;;;4.53;;
23614;SDS011;11985;49.404;7.734;2023-09-07T19:21:03;5.13;;;4.40;;
23614;SDS011;11985;49.404;7.734;2023-09-07T19:26:11;7.32;;;4.93;;
23614;SDS011;11985;49.404;7.734;2023-09-07T19:31:28;7.85;;;4.75;;
23614;SDS011;11985;49.404;7.734;2023-09-07T19:36:30;10.05;;;4.97;;
23614;SDS011;11985;49.404;7.734;2023-09-07T19:41:32;7.10;;;4.72;;
23614;SDS011;11985;49.404;7.734;2023-09-07T19:46:40;9.15;;;4.20;;
23614;SDS011;11985;49.404;7.734;2023-09-07T19:51:42;8.18;;;5.05;;
23614;SDS011;11985;49.404;7.734;2023-09-07T19:56:44;6.15;;;4.28;;
23614;SDS011;11985;49.404;7.734;2023-09-07T20:01:53;9.35;;;4.97;;
23614;SDS011;11985;49.404;7.734;2023-09-07T20:06:56;9.38;;;4.80;;
23614;SDS011;11985;49.404;7.734;2023-09-07T20:11:58;7.13;;;4.65;;
23614;SDS011;11985;49.404;7.734;2023-09-07T20:17:02;6.60;;;4.68;;
23614;SDS011;11985;49.404;7.734;2023-09-07T20:22:04;6.82;;;4.32;;
23614;SDS011;11985;49.404;7.734;2023-09-07T20:27:05;9.10;;;4.65;;
23614;SDS011;11985;49.404;7.734;2023-09-07T20:32:08;7.75;;;5.65;;
23614;SDS011;11985;49.404;7.734;2023-09-07T20:37:10;5.75;;;4.75;;
23614;SDS011;11985;49.404;7.734;2023-09-07T20:42:12;5.28;;;4.45;;
23614;SDS011;11985;49.404;7.734;2023-09-07T20:47:16;6.20;;;5.00;;
23614;SDS011;11985;49.404;7.734;2023-09-07T20:52:18;7.45;;;4.60;;
23614;SDS011;11985;49.404;7.734;2023-09-07T20:57:20;5.90;;;4.45;;
23614;SDS011;11985;49.404;7.734;2023-09-07T21:02:23;6.85;;;4.97;;
23614;SDS011;11985;49.404;7.734;2023-09-07T21:07:24;6.07;;;4.75;;
23614;SDS011;11985;49.404;7.734;2023-09-07T21:12:26;7.13;;;4.97;;
23614;SDS011;11985;49.404;7.734;2023-09-07T21:17:29;7.38;;;5.63;;
23614;SDS011;11985;49.404;7.734;2023-09-07T21:22:31;9.38;;;5.82;;
23614;SDS011;11985;49.404;7.734;2023-09-07T21:27:33;6.10;;;4.85;;
23614;SDS011;11985;49.404;7.734;2023-09-07T21:32:36;6.97;;;4.57;;
23614;SDS011;11985;49.404;7.734;2023-09-07T21:37:38;6.20;;;4.40;;
23614;SDS011;11985;49.404;7.734;2023-09-07T21:42:40;8.23;;;4.80;;
23614;SDS011;11985;49.404;7.734;2023-09-07T21:47:43;7.72;;;4.68;;
23614;SDS011;11985;49.404;7.734;2023-09-07T21:52:45;7.40;;;4.68;;
23614;SDS011;11985;49.404;7.734;2023-09-07T21:57:47;6.90;;;5.03;;
23614;SDS011;11985;49.404;7.734;2023-09-07T22:02:50;7.78;;;4.57;;
23614;SDS011;11985;49.404;7.734;2023-09-07T22:07:52;6.07;;;4.65;;
23614;SDS011;11985;49.404;7.734;2023-09-07T22:12:53;10.52;;;4.55;;
23614;SDS011;11985;49.404;7.734;2023-09-07T22:18:00;6.70;;;4.65;;
23614;SDS011;11985;49.404;7.734;2023-09-07T22:23:02;9.75;;;4.38;;
23614;SDS011;11985;49.404;7.734;2023-09-07T22:28:04;5.95;;;4.55;;
23614;SDS011;11985;49.404;7.734;2023-09-07T22:33:10;4.82;;;4.30;;
23614;SDS011;11985;49.404;7.734;2023-09-07T22:38:12;8.35;;;5.20;;
23614;SDS011;11985;49.404;7.734;2023-09-07T22:43:14;6.30;;;4.40;;
23614;SDS011;11985;49.404;7.734;2023-09-07T22:48:17;7.28;;;3.97;;
23614;SDS011;11985;49.404;7.734;2023-09-07T22:53:21;8.40;;;4.45;;
23614;SDS011;11985;49.404;7.734;2023-09-07T22:58:23;6.47;;;4.72;;
23614;SDS011;11985;49.404;7.734;2023-09-07T23:03:26;7.28;;;4.97;;
23614;SDS011;11985;49.404;7.734;2023-09-07T23:08:27;6.13;;;4.20;;
23614;SDS011;11985;49.404;7.734;2023-09-07T23:13:31;5.90;;;4.15;;
23614;SDS011;11985;49.404;7.734;2023-09-07T23:18:36;6.22;;;4.20;;
23614;SDS011;11985;49.404;7.734;2023-09-07T23:23:38;7.47;;;5.00;;
23614;SDS011;11985;49.404;7.734;2023-09-07T23:28:40;10.90;;;4.70;;
23614;SDS011;11985;49.404;7.734;2023-09-07T23:33:43;8.90;;;4.88;;
23614;SDS011;11985;49.404;7.734;2023-09-07T23:38:45;7.10;;;4.53;;
23614;SDS011;11985;49.404;7.734;2023-09-07T23:43:47;8.40;;;4.82;;
23614;SDS011;11985;49.404;7.734;2023-09-07T23:48:50;9.90;;;4.97;;
23614;SDS011;11985;49.404;7.734;2023-09-07T23:53:51;7.22;;;5.00;;
23614;SDS011;11985;49.404;7.734;2023-09-07T23:58:53;6.60;;;5.05;;
